ADDS TAF Board (Experimental) INFO Settings
IDs:

KMCI - Kansas City Intl, MO, US

Issued at 2320 UTC 04 Jul 2015
Updated at: 0411 UTC 05 Jul 2015
Time0353Z 05/05Z 05/06Z 05/07Z 05/08Z 05/09Z 05/10Z 05/11Z 05/12Z 05/13Z 05/14Z 05/15Z 05/16Z 05/17Z
Type OBS PRVL PRVL PRVL PRVL PRVL PRVL PRVL PRVL PRVL PRVL PRVL PRVL PRVL
VIS 6 >6 >6 >6 >6 >6 >6 >6 >6 >6 >6 >6 >6 >6
CIG -- -- -- -- -- -- -- -- -- -- -- -- -- --
Cover CLR SCT SCT SCT SCT SCT SCT SCT SCT SCT SCT SCT SCT SCT
FltCat VFR VFR VFR VFR VFR VFR VFR VFR VFR VFR VFR VFR VFR VFR
WX HZ -- -- -- -- -- -- -- -- -- -- -- -- --
WDir 140 130 130 130 130 130 130 130 130 170 170 170 170 170
WSpd 5 7 7 7 7 7 7 7 7 13 13 13 13 13
WGst -- -- -- -- -- -- -- -- -- -- -- -- -- --
R01/19
XWnd -4 -6 -6 -6 -6 -6 -6 -6 -6 -5 -5 -5 -5 -5
HWnd -3 -3 -3 -3 -3 -3 -3 -3 -3 -12 -12 -12 -12 -12
R09/27
XWnd -3 -4 -4 -4 -4 -4 -4 -4 -4 -12 -12 -12 -12 -12
HWnd 4 6 6 6 6 6 6 6 6 4 4 4 4 4

NOTE: TEMPO conditions in [brackets]. Keep in mind TEMPO conditions might be better (lower impact) than prevailing conditions.

Raw TAF
KMCI 042320Z 0500/0524 13007KT P6SM SCT250
  FM051300 17013KT P6SM SCT040


Raw METAR
KMCI 050353Z 14005KT 6SM HZ CLR 22/18 A2999 RMK AO2 SLP146 T02170178
KMCI 050253Z 14005KT 10SM CLR 22/18 A2997 RMK AO2 SLP140 T02170178 53008
KMCI 050153Z 13005KT 10SM SCT250 24/17 A2995 RMK AO2 SLP131 T02390172

METAR Board
Radar Display
Forecast Discussion

TAF Board Legend

Potential Impact
Threat None Slight Moderate High
Visibility (sm) ≥5.1 5.1>X≥3 3>X≥1 <1
Ceiling (100 ft) ≥30.1 30.1>X≥10 10>X≥5 <5
Wind Speed (kt) <10 10≤X<20 20≤X<30 ≥30
Wind Gust (kt) <15 15≤X<25 25≤X<35 ≥35
Weather No Wx Reported VCTS,-TS,-FZRA,SN TS,FZRA +TS,+FZRA,+SN